Time;durP1;ratioP1;P1;durP2;ratioP2;P2;SDS_P1;SDS_P2;PMS_P1;PMS_P2;Temp;Humidity;BMP_temperature;BMP_pressure;BME280_temperature;BME280_humidity;BME280_pressure;Samples;Min_cycle;Max_cycle;Signal;HPM_P1;HPM_P2
2023/10/23 00:00:59;;;;;;;4.85;2.35;;;13.10;96.40;;;;;;5073481;28;20036;-77
2023/10/23 00:03:25;;;;;;;5.85;2.70;;;13.10;96.30;;;;;;5055884;28;20032;-76
2023/10/23 00:05:50;;;;;;;4.95;3.08;;;13.10;96.30;;;;;;5073451;28;20029;-76
2023/10/23 00:08:16;;;;;;;4.47;2.65;;;13.10;96.30;;;;;;5073373;28;20107;-76
2023/10/23 00:10:44;;;;;;;4.82;3.05;;;13.10;96.10;;;;;;5055854;28;20047;-75
2023/10/23 00:13:10;;;;;;;3.95;2.30;;;13.10;96.00;;;;;;5056060;28;20468;-76
2023/10/23 00:15:36;;;;;;;5.10;2.65;;;13.00;96.10;;;;;;5073231;28;20492;-76
2023/10/23 00:18:02;;;;;;;4.80;2.30;;;12.90;96.20;;;;;;5073225;28;20033;-76
2023/10/23 00:20:28;;;;;;;3.85;2.28;;;12.90;96.10;;;;;;5073202;28;20059;-76
2023/10/23 00:22:53;;;;;;;3.70;2.15;;;12.90;96.10;;;;;;5055724;28;20033;-76
2023/10/23 00:25:19;;;;;;;4.22;2.38;;;12.90;95.90;;;;;;5055640;28;20025;-76
2023/10/23 00:27:44;;;;;;;4.45;2.10;;;12.80;95.90;;;;;;5055631;28;20025;-76
2023/10/23 00:30:10;;;;;;;4.45;2.50;;;12.80;96.00;;;;;;5055619;28;20033;-76
2023/10/23 00:32:36;;;;;;;3.25;2.33;;;12.80;96.00;;;;;;5055402;28;20048;-76
2023/10/23 00:35:02;;;;;;;3.50;2.30;;;12.80;96.00;;;;;;5055533;28;20036;-76
2023/10/23 00:37:27;;;;;;;3.65;2.53;;;12.80;95.90;;;;;;5076670;28;20046;-76
2023/10/23 00:39:53;;;;;;;3.50;2.38;;;12.70;96.00;;;;;;5059729;28;20079;-76
2023/10/23 00:42:19;;;;;;;4.78;3.03;;;12.70;96.00;;;;;;5077171;28;20037;-76
2023/10/23 00:44:44;;;;;;;4.70;2.90;;;12.70;96.00;;;;;;5077193;28;20036;-76
2023/10/23 00:47:10;;;;;;;4.60;2.45;;;12.70;95.90;;;;;;5059410;28;20052;-76
2023/10/23 00:49:37;;;;;;;4.20;2.50;;;12.70;96.00;;;;;;5026481;28;20037;-76
2023/10/23 00:52:03;;;;;;;4.45;2.25;;;12.70;95.90;;;;;;5059458;28;20059;-76
2023/10/23 00:54:30;;;;;;;3.03;2.00;;;12.60;95.90;;;;;;5076744;28;20041;-76
2023/10/23 00:56:56;;;;;;;4.70;1.83;;;12.70;95.90;;;;;;5076932;28;20037;-77
2023/10/23 00:59:22;;;;;;;2.47;1.65;;;12.70;95.80;;;;;;5059375;28;20085;-76
2023/10/23 01:01:47;;;;;;;3.80;2.00;;;12.60;95.60;;;;;;5077000;28;20036;-76
2023/10/23 01:04:13;;;;;;;4.28;2.40;;;12.60;95.50;;;;;;5076851;28;20079;-76
2023/10/23 01:06:39;;;;;;;3.35;2.08;;;12.60;95.50;;;;;;5076769;28;20036;-76
2023/10/23 01:09:05;;;;;;;4.68;2.65;;;12.60;95.60;;;;;;5059223;28;20092;-76
2023/10/23 01:11:32;;;;;;;5.60;2.83;;;12.50;95.40;;;;;;5076607;28;20029;-76
2023/10/23 01:13:58;;;;;;;6.55;3.58;;;12.50;95.50;;;;;;5042644;28;20032;-77
2023/10/23 01:16:24;;;;;;;4.55;2.22;;;12.40;95.40;;;;;;5058941;28;20025;-76
2023/10/23 01:18:49;;;;;;;3.92;2.20;;;12.40;95.20;;;;;;5058885;28;20037;-77
2023/10/23 01:21:15;;;;;;;4.60;2.38;;;12.30;95.20;;;;;;5058948;28;20036;-76
2023/10/23 01:23:46;;;;;;;3.33;2.28;;;12.20;95.40;;;;;;5076436;28;20044;-76
2023/10/23 01:26:11;;;;;;;2.83;2.13;;;12.20;95.70;;;;;;5059416;28;20055;-76
2023/10/23 01:28:37;;;;;;;3.67;2.03;;;12.30;96.10;;;;;;5058716;28;20033;-76
2023/10/23 01:31:02;;;;;;;2.95;1.98;;;12.20;95.80;;;;;;5058780;28;20060;-76
2023/10/23 01:33:28;;;;;;;4.65;1.80;;;12.10;95.80;;;;;;5076167;28;20065;-76
2023/10/23 01:35:54;;;;;;;2.53;1.42;;;12.10;95.80;;;;;;5076113;28;20029;-76
2023/10/23 01:38:20;;;;;;;2.75;1.70;;;12.10;95.70;;;;;;5058583;28;20029;-76
2023/10/23 01:40:45;;;;;;;3.22;1.48;;;12.10;95.50;;;;;;5025586;28;20108;-76
2023/10/23 01:43:11;;;;;;;2.15;1.40;;;12.10;95.40;;;;;;5076067;28;20033;-76
2023/10/23 01:45:37;;;;;;;3.50;1.42;;;12.00;95.40;;;;;;5041856;28;20025;-76
2023/10/23 01:48:03;;;;;;;2.25;1.52;;;11.90;95.50;;;;;;5075717;28;20033;-76
2023/10/23 01:50:28;;;;;;;2.28;1.50;;;11.90;95.60;;;;;;5058502;28;20021;-76
2023/10/23 01:52:54;;;;;;;3.17;1.63;;;11.90;95.50;;;;;;5075595;28;20049;-76
2023/10/23 01:55:19;;;;;;;2.03;1.50;;;11.90;95.60;;;;;;5041741;28;20059;-75
2023/10/23 01:57:45;;;;;;;2.00;1.60;;;11.90;95.60;;;;;;5075825;28;20057;-75
2023/10/23 02:00:12;;;;;;;3.22;1.75;;;11.90;95.60;;;;;;5041684;28;20025;-76
2023/10/23 02:02:37;;;;;;;2.05;1.65;;;11.90;95.50;;;;;;5075712;28;20052;-76
2023/10/23 02:05:04;;;;;;;1.95;1.63;;;11.90;95.60;;;;;;5058144;28;20033;-76
2023/10/23 02:07:29;;;;;;;2.78;1.90;;;11.90;95.50;;;;;;5075761;28;20025;-75
2023/10/23 02:09:58;;;;;;;1.75;1.50;;;11.80;95.60;;;;;;5057957;28;20021;-75
2023/10/23 02:12:25;;;;;;;2.33;1.50;;;11.80;95.60;;;;;;5075572;28;20032;-76
2023/10/23 02:14:52;;;;;;;3.53;1.60;;;11.90;95.60;;;;;;5075540;28;20058;-77
2023/10/23 02:17:19;;;;;;;3.03;1.83;;;11.90;95.50;;;;;;5075422;28;20019;-76
2023/10/23 02:19:45;;;;;;;2.13;1.60;;;11.90;95.40;;;;;;5075348;28;20017;-76
2023/10/23 02:22:10;;;;;;;3.88;1.88;;;11.90;95.40;;;;;;5075333;28;20080;-76
2023/10/23 02:24:36;;;;;;;2.92;1.70;;;11.90;95.30;;;;;;5057653;28;20055;-76
2023/10/23 02:27:02;;;;;;;3.53;2.17;;;11.80;95.20;;;;;;5075328;28;20025;-76
2023/10/23 02:29:28;;;;;;;2.70;1.70;;;11.90;95.10;;;;;;5057543;28;20025;-76
2023/10/23 02:31:55;;;;;;;2.05;1.60;;;11.80;94.90;;;;;;5075153;28;20025;-76
2023/10/23 02:34:21;;;;;;;2.65;1.67;;;11.80;95.00;;;;;;5074976;28;20025;-76
2023/10/23 02:36:47;;;;;;;4.03;2.50;;;11.80;95.00;;;;;;5075062;28;20033;-76
2023/10/23 02:39:12;;;;;;;3.67;2.15;;;11.70;95.60;;;;;;5057306;28;20052;-76
2023/10/23 02:41:38;;;;;;;4.50;2.30;;;11.70;95.40;;;;;;5074940;28;20029;-76
2023/10/23 02:44:05;;;;;;;3.22;2.10;;;11.70;95.40;;;;;;5057365;28;20036;-76
2023/10/23 02:46:34;;;;;;;4.30;2.30;;;11.70;95.50;;;;;;5057208;28;20029;-76
2023/10/23 02:49:00;;;;;;;4.15;2.13;;;11.70;95.50;;;;;;5057542;28;20095;-76
2023/10/23 02:51:26;;;;;;;7.78;2.22;;;11.70;95.50;;;;;;5057192;28;20025;-76
2023/10/23 02:53:52;;;;;;;4.78;1.77;;;11.60;95.40;;;;;;5053424;28;20063;-76
2023/10/23 02:56:17;;;;;;;2.58;1.73;;;11.60;95.40;;;;;;5053732;28;20026;-76
2023/10/23 02:58:43;;;;;;;2.05;1.58;;;11.60;95.50;;;;;;5053951;28;20032;-76
2023/10/23 03:01:20;;;;;;;4.10;2.17;;;11.60;95.50;;;;;;5053637;28;20017;-76
2023/10/23 03:03:46;;;;;;;3.28;1.90;;;11.60;95.50;;;;;;5054556;28;20088;-76
2023/10/23 03:06:12;;;;;;;2.65;1.63;;;11.50;95.50;;;;;;5054494;28;20025;-76
2023/10/23 03:08:38;;;;;;;2.88;1.70;;;11.50;95.50;;;;;;5054459;28;20085;-77
2023/10/23 03:11:05;;;;;;;3.03;1.70;;;11.50;95.40;;;;;;5036910;28;20051;-76
2023/10/23 03:13:31;;;;;;;1.95;1.52;;;11.50;95.50;;;;;;5053292;28;20124;-76
2023/10/23 03:15:57;;;;;;;2.40;1.60;;;11.50;95.50;;;;;;5054329;28;20066;-76
2023/10/23 03:18:22;;;;;;;3.90;2.08;;;11.50;95.50;;;;;;5053396;28;20029;-76
2023/10/23 03:20:48;;;;;;;3.00;2.00;;;11.50;95.50;;;;;;5036793;28;20025;-76
2023/10/23 03:23:14;;;;;;;3.35;2.20;;;11.50;95.50;;;;;;5020385;28;20040;-76
2023/10/23 03:25:42;;;;;;;2.75;1.73;;;11.40;95.50;;;;;;5053212;28;20049;-76
2023/10/23 03:28:08;;;;;;;4.10;1.90;;;11.40;95.50;;;;;;5054088;28;20029;-76
2023/10/23 03:30:33;;;;;;;3.28;1.67;;;11.40;95.60;;;;;;5036626;28;20064;-76
2023/10/23 03:32:59;;;;;;;2.72;1.48;;;11.40;95.60;;;;;;5053959;28;20048;-76
2023/10/23 03:35:25;;;;;;;2.35;1.52;;;11.40;95.60;;;;;;5053871;28;20026;-76
2023/10/23 03:37:50;;;;;;;2.33;1.75;;;11.40;95.60;;;;;;5052901;28;20037;-76
2023/10/23 03:40:16;;;;;;;2.28;1.60;;;11.30;95.50;;;;;;5053044;28;20045;-76
2023/10/23 03:42:42;;;;;;;2.25;1.60;;;11.40;95.60;;;;;;5053832;28;20034;-76
2023/10/23 03:45:08;;;;;;;2.95;1.90;;;11.30;95.60;;;;;;5053873;28;20026;-76
2023/10/23 03:47:34;;;;;;;3.20;1.77;;;11.30;95.50;;;;;;5052709;28;20056;-76
2023/10/23 03:49:59;;;;;;;2.40;1.48;;;11.30;95.50;;;;;;5053747;28;20022;-76
2023/10/23 03:52:25;;;;;;;2.33;1.55;;;11.30;95.40;;;;;;5052771;28;20091;-76
2023/10/23 03:54:51;;;;;;;2.78;1.60;;;11.30;95.40;;;;;;5052521;28;20053;-76
2023/10/23 03:57:16;;;;;;;3.08;1.60;;;11.30;95.30;;;;;;5036187;28;20036;-76
2023/10/23 03:59:42;;;;;;;2.28;1.63;;;11.20;95.50;;;;;;5052681;28;20032;-76
2023/10/23 04:02:08;;;;;;;2.13;1.55;;;11.20;95.50;;;;;;5052621;28;20026;-76
2023/10/23 04:04:34;;;;;;;2.10;1.55;;;11.20;95.50;;;;;;5053450;28;20028;-76
2023/10/23 04:06:59;;;;;;;3.72;1.63;;;11.20;95.50;;;;;;5053441;28;20061;-76
2023/10/23 04:09:28;;;;;;;3.00;1.77;;;11.10;95.50;;;;;;5052453;28;20021;-76
2023/10/23 04:11:54;;;;;;;2.67;2.00;;;11.10;95.40;;;;;;5053423;28;20350;-76
2023/10/23 04:14:20;;;;;;;2.55;1.67;;;11.20;95.50;;;;;;5052279;28;20045;-76
2023/10/23 04:16:46;;;;;;;3.53;1.95;;;11.10;95.40;;;;;;5053343;28;20045;-76
2023/10/23 04:19:11;;;;;;;2.70;1.73;;;11.10;95.60;;;;;;5053338;28;20030;-76
2023/10/23 04:21:39;;;;;;;2.00;1.83;;;11.10;95.70;;;;;;5053220;28;20037;-76
2023/10/23 04:24:06;;;;;;;2.80;1.90;;;11.10;95.70;;;;;;5052355;28;20030;-76
2023/10/23 04:26:32;;;;;;;3.08;2.00;;;11.10;95.70;;;;;;5053262;28;20048;-76
2023/10/23 04:28:57;;;;;;;3.55;2.13;;;11.00;95.80;;;;;;5052171;28;20400;-76
2023/10/23 04:31:23;;;;;;;2.50;1.95;;;11.00;95.90;;;;;;5035667;28;20041;-76
2023/10/23 04:33:48;;;;;;;3.25;1.77;;;11.00;95.90;;;;;;5052130;28;20068;-76
2023/10/23 04:36:14;;;;;;;2.28;1.58;;;10.90;96.00;;;;;;5035645;28;20030;-76
2023/10/23 04:38:40;;;;;;;4.32;2.03;;;11.00;95.80;;;;;;5052299;28;20051;-76
2023/10/23 04:41:05;;;;;;;2.92;1.80;;;11.00;95.70;;;;;;5053097;28;20100;-76
2023/10/23 04:43:31;;;;;;;2.42;1.60;;;11.00;96.10;;;;;;5035782;28;20025;-77
2023/10/23 04:45:57;;;;;;;2.17;1.80;;;11.00;95.70;;;;;;5053042;28;20500;-76
2023/10/23 04:48:23;;;;;;;2.38;1.80;;;10.90;95.60;;;;;;5053054;28;20029;-76
2023/10/23 04:50:48;;;;;;;2.90;1.98;;;10.90;95.80;;;;;;5051928;28;20037;-76
2023/10/23 04:53:14;;;;;;;2.80;2.13;;;10.80;95.70;;;;;;5056862;28;20108;-76
2023/10/23 04:55:40;;;;;;;2.58;1.83;;;10.80;95.90;;;;;;5055333;28;20100;-76
2023/10/23 04:58:07;;;;;;;2.88;1.92;;;10.80;96.00;;;;;;5072964;28;20021;-76
2023/10/23 05:00:37;;;;;;;3.78;2.30;;;10.90;96.00;;;;;;5055188;28;20029;-77
2023/10/23 05:03:05;;;;;;;2.70;1.95;;;10.90;95.80;;;;;;5055312;28;20059;-77
2023/10/23 05:05:32;;;;;;;3.10;1.63;;;10.90;95.80;;;;;;5072833;28;20048;-76
2023/10/23 05:07:58;;;;;;;2.58;1.77;;;10.80;95.70;;;;;;5072769;28;20029;-76
2023/10/23 05:10:24;;;;;;;5.80;1.80;;;10.80;95.70;;;;;;5055209;28;20037;-76
2023/10/23 05:12:49;;;;;;;2.03;1.50;;;10.80;95.70;;;;;;5038622;28;20044;-77
2023/10/23 05:15:16;;;;;;;2.60;2.00;;;10.80;95.70;;;;;;5055250;28;20418;-76
2023/10/23 05:17:42;;;;;;;2.97;1.80;;;10.80;95.60;;;;;;5072667;28;20029;-76
2023/10/23 05:20:08;;;;;;;3.55;1.90;;;10.80;95.40;;;;;;5055138;28;20045;-76
2023/10/23 05:22:34;;;;;;;2.38;1.67;;;10.70;95.40;;;;;;5074442;28;20025;-76
2023/10/23 05:25:00;;;;;;;2.35;1.70;;;10.80;95.40;;;;;;5042217;28;20079;-76
2023/10/23 05:27:25;;;;;;;1.98;1.52;;;10.70;95.20;;;;;;5058728;28;20032;-76
2023/10/23 05:29:51;;;;;;;3.20;1.90;;;10.70;95.20;;;;;;5076316;28;20088;-76
2023/10/23 05:32:16;;;;;;;4.47;2.00;;;10.70;95.40;;;;;;5058699;28;20032;-76
2023/10/23 05:34:45;;;;;;;3.30;1.85;;;10.60;95.50;;;;;;5076071;28;20384;-77
2023/10/23 05:37:11;;;;;;;1.90;1.38;;;10.60;95.60;;;;;;5058620;28;20025;-76
2023/10/23 05:39:37;;;;;;;2.63;1.67;;;10.60;95.60;;;;;;5076119;28;20560;-77
2023/10/23 05:42:03;;;;;;;2.53;1.63;;;10.60;95.60;;;;;;5076093;28;20032;-77
2023/10/23 05:44:29;;;;;;;2.53;1.70;;;10.50;95.70;;;;;;5076078;28;20028;-76
2023/10/23 05:46:55;;;;;;;2.85;1.77;;;10.50;95.80;;;;;;5058326;28;20100;-76
2023/10/23 05:49:20;;;;;;;3.75;2.00;;;10.50;95.90;;;;;;5058497;28;20040;-76
2023/10/23 05:51:47;;;;;;;3.70;2.15;;;10.60;96.00;;;;;;5058418;28;20021;-76
2023/10/23 05:54:12;;;;;;;2.90;2.03;;;10.60;96.00;;;;;;5075639;28;20052;-76
2023/10/23 05:56:38;;;;;;;3.30;1.80;;;10.70;96.10;;;;;;5058153;28;20021;-77
2023/10/23 05:59:04;;;;;;;2.80;2.03;;;10.60;96.10;;;;;;5075770;28;20040;-77
2023/10/23 06:01:30;;;;;;;3.60;2.20;;;10.60;96.20;;;;;;5075748;28;20100;-76
2023/10/23 06:03:56;;;;;;;3.88;2.00;;;10.50;96.30;;;;;;5075653;28;20029;-76
2023/10/23 06:06:22;;;;;;;2.60;2.03;;;10.50;96.50;;;;;;5058114;28;20055;-76
2023/10/23 06:08:47;;;;;;;3.25;2.00;;;10.50;96.50;;;;;;5041605;28;20067;-76
2023/10/23 06:11:13;;;;;;;3.28;1.88;;;10.50;96.70;;;;;;5058071;28;20044;-76
2023/10/23 06:13:39;;;;;;;2.97;1.90;;;10.40;96.70;;;;;;5075490;28;20017;-77
2023/10/23 06:16:06;;;;;;;3.05;1.95;;;10.30;96.80;;;;;;5075448;28;20044;-76
2023/10/23 06:18:36;;;;;;;3.45;1.90;;;10.30;96.90;;;;;;5075412;28;20029;-77
2023/10/23 06:21:04;;;;;;;3.58;2.00;;;10.40;96.90;;;;;;5075552;28;20455;-77
2023/10/23 06:23:37;;;;;;;2.92;1.83;;;10.40;96.90;;;;;;5075367;28;20042;-77
2023/10/23 06:26:04;;;;;;;4.07;1.85;;;10.40;96.90;;;;;;5075430;28;20079;-77
2023/10/23 06:28:30;;;;;;;3.30;2.10;;;10.30;96.90;;;;;;5057963;28;20025;-77
2023/10/23 06:30:56;;;;;;;3.00;2.08;;;10.40;97.00;;;;;;5057520;28;20017;-77
2023/10/23 06:33:21;;;;;;;3.65;2.10;;;10.40;97.10;;;;;;5039871;28;20063;-77
2023/10/23 06:35:57;;;;;;;3.90;2.10;;;10.40;97.00;;;;;;5057350;28;20100;-76
2023/10/23 06:38:22;;;;;;;3.08;1.75;;;10.40;97.10;;;;;;5057632;28;20048;-77
2023/10/23 06:40:48;;;;;;;4.72;2.67;;;10.40;97.30;;;;;;5057381;28;20029;-76
2023/10/23 06:43:14;;;;;;;2.95;2.20;;;10.50;97.30;;;;;;5057602;28;20060;-76
2023/10/23 06:45:39;;;;;;;5.15;1.98;;;10.50;97.30;;;;;;5075000;28;20044;-77
2023/10/23 06:48:05;;;;;;;4.50;2.20;;;10.50;97.40;;;;;;5057389;28;20032;-77
2023/10/23 06:50:30;;;;;;;3.90;1.98;;;10.50;97.40;;;;;;5057219;28;20041;-76
2023/10/23 06:52:56;;;;;;;3.25;2.25;;;10.50;97.30;;;;;;5056942;28;20025;-77
2023/10/23 06:55:24;;;;;;;5.10;2.33;;;10.40;97.30;;;;;;5040758;28;20036;-77
2023/10/23 06:57:51;;;;;;;3.60;2.20;;;10.40;97.40;;;;;;5041218;28;20045;-76
2023/10/23 07:00:16;;;;;;;3.97;2.30;;;10.40;97.60;;;;;;5074606;28;20037;-76
2023/10/23 07:02:42;;;;;;;3.88;2.40;;;10.50;97.50;;;;;;5074581;28;20037;-77
2023/10/23 07:05:08;;;;;;;3.72;2.17;;;10.50;97.60;;;;;;5024139;28;20033;-76
2023/10/23 07:07:33;;;;;;;4.85;2.50;;;10.40;97.50;;;;;;5074638;28;20029;-77
2023/10/23 07:09:59;;;;;;;5.85;2.90;;;10.40;97.60;;;;;;5074508;28;20036;-76
2023/10/23 07:12:25;;;;;;;3.75;2.30;;;10.40;97.80;;;;;;5074329;28;20036;-76
2023/10/23 07:14:51;;;;;;;3.88;2.20;;;10.40;97.80;;;;;;5074196;28;20036;-77
2023/10/23 07:17:18;;;;;;;4.95;2.70;;;10.40;97.80;;;;;;5056820;28;20025;-77
2023/10/23 07:19:43;;;;;;;6.20;3.30;;;10.50;97.90;;;;;;5056595;28;20032;-77
2023/10/23 07:22:09;;;;;;;4.50;2.50;;;10.40;98.10;;;;;;5056525;28;20029;-76
2023/10/23 07:24:35;;;;;;;3.17;2.35;;;10.40;97.90;;;;;;5039998;28;20117;-77
2023/10/23 07:27:00;;;;;;;3.72;2.10;;;10.40;98.00;;;;;;5056524;28;20036;-77
2023/10/23 07:29:26;;;;;;;4.70;2.67;;;10.40;98.00;;;;;;5056428;28;20033;-77
2023/10/23 07:31:51;;;;;;;3.78;2.80;;;10.40;98.10;;;;;;5056635;28;20039;-76
2023/10/23 07:34:17;;;;;;;4.68;2.80;;;10.30;98.00;;;;;;5056165;28;20036;-77
2023/10/23 07:36:43;;;;;;;4.55;2.83;;;10.30;98.20;;;;;;5056365;28;20029;-75
2023/10/23 07:39:09;;;;;;;5.65;2.58;;;10.40;98.40;;;;;;5056213;28;20017;-78
2023/10/23 07:41:34;;;;;;;4.47;2.97;;;10.50;98.40;;;;;;5039905;28;20468;-77
2023/10/23 07:44:00;;;;;;;6.78;3.30;;;10.50;98.30;;;;;;5056311;28;20096;-78
2023/10/23 07:46:26;;;;;;;6.53;3.03;;;10.60;98.30;;;;;;5073529;28;20415;-77
2023/10/23 07:48:51;;;;;;;4.20;2.90;;;10.50;98.20;;;;;;5073769;28;20055;-77
2023/10/23 07:51:17;;;;;;;6.80;3.10;;;10.50;98.30;;;;;;5055993;28;20079;-77
2023/10/23 07:53:43;;;;;;;6.05;3.22;;;10.50;98.40;;;;;;5022979;28;20049;-78
2023/10/23 07:56:08;;;;;;;7.75;3.50;;;10.50;98.40;;;;;;5023130;28;20048;-78
2023/10/23 07:58:34;;;;;;;7.13;3.40;;;10.50;98.50;;;;;;5055995;28;20028;-78
2023/10/23 08:01:12;;;;;;;6.78;3.15;;;10.60;98.60;;;;;;5039671;28;20089;-78
2023/10/23 08:03:37;;;;;;;8.50;3.85;;;10.60;98.60;;;;;;5055928;28;20037;-77
2023/10/23 08:06:08;;;;;;;4.93;3.25;;;10.60;98.70;;;;;;5073545;28;20043;-78
2023/10/23 08:08:35;;;;;;;9.75;4.13;;;10.70;98.90;;;;;;5055954;28;20024;-78
2023/10/23 08:11:05;;;;;;;7.00;3.97;;;10.70;99.00;;;;;;5056121;28;20029;-77
2023/10/23 08:13:31;;;;;;;6.30;3.58;;;10.80;98.90;;;;;;5039181;28;20031;-78
2023/10/23 08:15:57;;;;;;;10.43;4.80;;;10.90;99.00;;;;;;5073343;28;20029;-78
2023/10/23 08:18:23;;;;;;;7.13;4.35;;;10.90;99.10;;;;;;5073296;28;20047;-78
2023/10/23 08:20:48;;;;;;;9.65;4.78;;;11.00;99.10;;;;;;5073236;28;20031;-78
2023/10/23 08:23:14;;;;;;;9.10;5.18;;;11.00;99.30;;;;;;5055625;28;20029;-77
2023/10/23 08:25:41;;;;;;;9.95;4.97;;;11.10;99.20;;;;;;5022684;28;20041;-78
2023/10/23 08:28:08;;;;;;;9.10;5.32;;;11.10;99.30;;;;;;5039193;28;20209;-78
2023/10/23 08:30:34;;;;;;;11.30;5.80;;;11.10;99.40;;;;;;5073129;28;20032;-76
2023/10/23 08:32:59;;;;;;;9.15;5.50;;;11.20;99.50;;;;;;5055296;28;20040;-77
2023/10/23 08:35:28;;;;;;;9.98;5.47;;;11.30;99.60;;;;;;5055364;28;20033;-77
2023/10/23 08:37:54;;;;;;;10.40;5.97;;;11.40;99.70;;;;;;5073105;28;20037;-77
2023/10/23 08:40:21;;;;;;;9.40;5.45;;;11.50;99.90;;;;;;5055634;28;20029;-77
2023/10/23 08:42:47;;;;;;;9.90;5.78;;;11.50;99.90;;;;;;5055740;28;20230;-77
2023/10/23 08:45:15;;;;;;;11.77;6.75;;;11.60;99.90;;;;;;5055612;28;20029;-77
2023/10/23 08:47:40;;;;;;;9.80;6.10;;;11.70;99.90;;;;;;5072896;28;20025;-77
2023/10/23 08:50:06;;;;;;;10.25;5.82;;;11.80;99.90;;;;;;5073065;28;20036;-77
2023/10/23 08:52:38;;;;;;;12.02;6.28;;;11.90;99.90;;;;;;5072996;28;20032;-77
2023/10/23 08:55:07;;;;;;;9.85;5.88;;;12.00;99.90;;;;;;5051922;28;20048;-77
2023/10/23 08:57:34;;;;;;;11.15;5.32;;;12.00;99.90;;;;;;5053906;28;20029;-77
2023/10/23 09:00:00;;;;;;;9.75;5.60;;;12.10;99.90;;;;;;5056960;28;20017;-78
2023/10/23 09:02:27;;;;;;;9.95;5.18;;;12.10;99.90;;;;;;5039394;28;20052;-77
2023/10/23 09:04:53;;;;;;;9.57;5.25;;;12.20;99.90;;;;;;5039573;28;20029;-77
2023/10/23 09:07:19;;;;;;;12.98;6.13;;;12.30;99.90;;;;;;5056842;28;20056;-78
2023/10/23 09:09:44;;;;;;;13.00;5.88;;;12.40;99.90;;;;;;5056935;28;20029;-77
2023/10/23 09:12:29;;;;;;;8.70;5.03;;;12.40;99.90;;;;;;5056731;28;20037;-78
2023/10/23 09:14:55;;;;;;;12.10;4.60;;;12.40;99.90;;;;;;5055780;28;20029;-77
2023/10/23 09:17:23;;;;;;;12.60;4.93;;;12.50;99.90;;;;;;5055601;28;20026;-77
2023/10/23 09:19:49;;;;;;;9.40;5.03;;;12.50;99.90;;;;;;5039262;28;20021;-77
2023/10/23 09:22:14;;;;;;;8.13;4.47;;;12.60;99.90;;;;;;5055635;28;20029;-77
2023/10/23 09:24:40;;;;;;;8.13;4.22;;;12.70;99.90;;;;;;5056546;28;20025;-76
2023/10/23 09:27:06;;;;;;;9.60;4.50;;;12.70;99.90;;;;;;5038869;28;20033;-76
2023/10/23 09:29:32;;;;;;;10.43;3.88;;;12.80;99.90;;;;;;5056407;28;20060;-76
2023/10/23 09:31:58;;;;;;;7.35;4.50;;;12.90;99.90;;;;;;5056376;28;20057;-76
2023/10/23 09:34:24;;;;;;;8.65;4.60;;;12.90;99.90;;;;;;5056090;28;20037;-76
2023/10/23 09:36:51;;;;;;;10.00;3.85;;;13.10;99.90;;;;;;5055257;28;20030;-76
2023/10/23 09:39:18;;;;;;;8.18;4.07;;;13.10;99.90;;;;;;5056192;28;20021;-76
2023/10/23 09:41:47;;;;;;;7.22;4.20;;;13.10;99.80;;;;;;5056144;28;20026;-76
2023/10/23 09:44:14;;;;;;;7.55;4.20;;;13.20;99.90;;;;;;5055164;28;20049;-77
2023/10/23 09:46:42;;;;;;;9.27;4.22;;;13.30;99.80;;;;;;5056127;28;20024;-76
2023/10/23 09:49:09;;;;;;;9.75;4.70;;;13.30;99.60;;;;;;5055984;28;20036;-76
2023/10/23 09:51:39;;;;;;;8.52;3.92;;;13.30;99.50;;;;;;5038710;28;20045;-76
2023/10/23 09:54:16;;;;;;;8.45;4.47;;;13.40;99.60;;;;;;5066669;28;20057;-77
2023/10/23 09:56:52;;;;;;;8.18;4.22;;;13.50;99.60;;;;;;5076047;28;20049;-77
2023/10/23 09:59:24;;;;;;;11.38;4.60;;;13.50;99.90;;;;;;5075778;28;20079;-77
2023/10/23 10:01:51;;;;;;;10.63;4.30;;;13.50;99.50;;;;;;5075828;28;20025;-77
2023/10/23 10:04:28;;;;;;;9.70;4.35;;;13.60;99.40;;;;;;5058056;28;20464;-76
2023/10/23 10:07:00;;;;;;;10.93;4.60;;;13.60;99.50;;;;;;5058054;28;20032;-77
2023/10/23 10:09:27;;;;;;;9.95;4.38;;;13.60;99.70;;;;;;5057922;28;20101;-77
2023/10/23 10:11:57;;;;;;;12.48;4.32;;;13.60;99.50;;;;;;5075588;28;20029;-77
2023/10/23 10:14:27;;;;;;;8.70;4.15;;;13.70;99.60;;;;;;5075487;28;20028;-77
2023/10/23 10:16:57;;;;;;;11.60;4.38;;;13.70;99.20;;;;;;5075503;28;20028;-77
2023/10/23 10:19:26;;;;;;;6.63;4.18;;;13.70;99.30;;;;;;5057811;28;20037;-77
2023/10/23 10:22:14;;;;;;;11.23;5.05;;;13.70;99.30;;;;;;5075457;28;20045;-77
2023/10/23 10:24:41;;;;;;;8.68;4.40;;;13.70;99.30;;;;;;5057728;28;20018;-77
2023/10/23 10:27:07;;;;;;;13.85;4.65;;;13.80;99.20;;;;;;5041281;28;20025;-76
2023/10/23 10:29:32;;;;;;;6.57;4.22;;;13.80;99.20;;;;;;5075209;28;20021;-76
2023/10/23 10:32:05;;;;;;;7.15;4.22;;;13.90;99.20;;;;;;5075385;28;20088;-77
2023/10/23 10:34:52;;;;;;;12.02;4.55;;;13.90;99.30;;;;;;5057328;28;20032;-76
2023/10/23 10:37:20;;;;;;;11.68;3.97;;;13.90;99.20;;;;;;5075155;28;20025;-76
2023/10/23 10:39:52;;;;;;;8.75;3.33;;;14.00;99.10;;;;;;5075059;28;20031;-78
2023/10/23 10:42:23;;;;;;;7.87;3.90;;;14.00;98.90;;;;;;5057270;28;20033;-76
2023/10/23 10:44:52;;;;;;;7.95;3.55;;;14.00;98.40;;;;;;5057581;28;20276;-76
2023/10/23 10:47:19;;;;;;;13.40;3.90;;;14.10;98.60;;;;;;5074907;28;20028;-77
2023/10/23 10:49:50;;;;;;;7.97;3.72;;;14.10;98.90;;;;;;5074939;28;20032;-76
2023/10/23 10:52:30;;;;;;;12.93;4.30;;;14.10;98.60;;;;;;5074834;28;20036;-77
2023/10/23 10:54:59;;;;;;;6.20;3.28;;;14.20;98.70;;;;;;5056952;28;20049;-77
2023/10/23 10:57:26;;;;;;;9.07;3.40;;;14.10;98.40;;;;;;5057026;28;20020;-77
2023/10/23 10:59:57;;;;;;;9.27;3.40;;;14.20;98.50;;;;;;5040645;28;20055;-76
2023/10/23 11:02:23;;;;;;;7.00;3.95;;;14.20;98.30;;;;;;5056889;28;20029;-77
2023/10/23 11:04:48;;;;;;;8.25;3.25;;;14.20;98.30;;;;;;5074564;28;20043;-77
2023/10/23 11:07:15;;;;;;;8.05;3.35;;;14.20;98.30;;;;;;5040293;28;20472;-77
2023/10/23 11:09:41;;;;;;;7.63;3.25;;;14.30;98.50;;;;;;5040303;28;20039;-77
2023/10/23 11:12:07;;;;;;;8.38;3.42;;;14.30;98.30;;;;;;5057006;28;20021;-77
2023/10/23 11:14:32;;;;;;;10.15;3.08;;;14.30;98.40;;;;;;5040281;28;20051;-76
2023/10/23 11:16:59;;;;;;;10.25;3.53;;;14.40;98.50;;;;;;5056713;28;20040;-77
2023/10/23 11:19:24;;;;;;;8.52;3.45;;;14.40;98.30;;;;;;5056158;28;20029;-77
2023/10/23 11:22:06;;;;;;;12.10;4.60;;;14.40;98.40;;;;;;5074208;28;20028;-77
2023/10/23 11:24:32;;;;;;;10.48;4.00;;;14.50;97.80;;;;;;5056825;28;20048;-77
2023/10/23 11:26:57;;;;;;;8.10;3.50;;;14.40;97.90;;;;;;5056565;28;20033;-76
2023/10/23 11:29:23;;;;;;;14.07;3.97;;;14.50;98.00;;;;;;5056488;28;20033;-77
2023/10/23 11:31:51;;;;;;;8.27;3.67;;;14.50;98.00;;;;;;5039898;28;20029;-76
2023/10/23 11:34:17;;;;;;;8.77;4.45;;;14.50;97.80;;;;;;5039974;28;20025;-77
2023/10/23 11:36:42;;;;;;;10.32;3.88;;;14.50;97.90;;;;;;5056394;28;20119;-76
2023/10/23 11:39:08;;;;;;;11.90;4.95;;;14.60;97.90;;;;;;5023420;28;20096;-77
2023/10/23 11:41:35;;;;;;;10.82;4.72;;;14.50;97.50;;;;;;5056444;28;20017;-77
2023/10/23 11:44:03;;;;;;;10.00;4.68;;;14.60;97.20;;;;;;5056104;28;20036;-76
2023/10/23 11:46:29;;;;;;;11.80;4.93;;;14.50;97.40;;;;;;5073770;28;20028;-76
2023/10/23 11:48:55;;;;;;;10.60;5.32;;;14.60;97.50;;;;;;5056186;28;20084;-71
2023/10/23 11:51:21;;;;;;;10.23;4.80;;;14.60;97.80;;;;;;5092633;22;20052;-79
2023/10/23 11:53:47;;;;;;;8.15;4.63;;;14.70;97.90;;;;;;5057162;28;20464;-80
2023/10/23 11:56:13;;;;;;;12.82;5.70;;;14.70;97.80;;;;;;5055597;28;20028;-79
2023/10/23 11:58:38;;;;;;;16.25;6.03;;;14.70;97.60;;;;;;5042449;28;20473;-80
2023/10/23 12:01:05;;;;;;;11.90;4.80;;;14.70;97.80;;;;;;5038322;28;20017;-81
